Time;durP1;ratioP1;P1;durP2;ratioP2;P2;SDS_P1;SDS_P2;PMS_P1;PMS_P2;Temp;Humidity;BMP_temperature;BMP_pressure;BME280_temperature;BME280_humidity;BME280_pressure;Samples;Min_cycle;Max_cycle;Signal;HPM_P1;HPM_P2
2021/08/06 00:01:25;;;;;;;15.05;8.45;;;;;;;25.41;48.00;98991.69;5073953;28;20028;-75
2021/08/06 00:03:51;;;;;;;12.60;8.73;;;;;;;25.41;47.71;98986.09;5074053;28;20040;-74
2021/08/06 00:06:17;;;;;;;15.88;9.32;;;;;;;25.46;47.88;98982.69;5074000;28;20399;-74
2021/08/06 00:08:42;;;;;;;20.98;7.75;;;;;;;25.45;47.63;98983.91;5073910;28;20466;-75
2021/08/06 00:11:08;;;;;;;16.25;7.85;;;;;;;25.41;47.84;98993.69;5073896;28;20083;-74
2021/08/06 00:13:34;;;;;;;19.65;9.63;;;;;;;25.42;48.13;98989.66;5073735;28;20036;-79
2021/08/06 00:16:00;;;;;;;13.70;8.60;;;;;;;25.45;48.02;98983.13;5073785;28;20032;-74
2021/08/06 00:18:26;;;;;;;26.35;10.35;;;;;;;25.39;48.25;98985.78;5073814;28;20411;-75
2021/08/06 00:20:52;;;;;;;21.45;10.77;;;;;;;25.39;48.14;98984.97;5073694;28;20024;-75
2021/08/06 00:23:18;;;;;;;18.35;10.73;;;;;;;25.39;47.87;98976.56;5073473;28;20035;-75
2021/08/06 00:25:44;;;;;;;25.13;13.25;;;;;;;25.35;48.23;98978.75;5073454;28;20029;-75
2021/08/06 00:28:10;;;;;;;23.00;12.60;;;;;;;25.41;48.00;98980.50;5072218;28;20040;-77
2021/08/06 00:30:36;;;;;;;21.45;11.45;;;;;;;25.42;47.75;98973.66;5073400;28;20103;-75
2021/08/06 00:33:02;;;;;;;26.17;14.40;;;;;;;25.35;48.33;98976.72;5073225;28;20083;-75
2021/08/06 00:35:28;;;;;;;23.55;11.40;;;;;;;25.45;48.00;98983.91;5073370;28;20110;-75
2021/08/06 00:37:53;;;;;;;20.33;13.13;;;;;;;25.44;48.14;98976.78;5073337;28;20056;-75
2021/08/06 00:40:24;;;;;;;31.27;13.45;;;;;;;25.44;47.84;98984.38;5073264;28;20599;-80
2021/08/06 00:42:51;;;;;;;24.20;14.48;;;;;;;25.43;48.03;98986.41;5073207;28;20062;-76
2021/08/06 00:45:17;;;;;;;28.13;13.40;;;;;;;25.42;47.87;98987.63;5073175;28;20028;-74
2021/08/06 00:47:43;;;;;;;33.50;14.38;;;;;;;25.48;48.12;98987.06;5073142;28;20028;-75
2021/08/06 00:50:11;;;;;;;28.15;14.95;;;;;;;25.48;47.67;98979.44;5073089;28;20029;-74
2021/08/06 00:52:38;;;;;;;21.65;15.27;;;;;;;25.48;48.17;98979.44;5073112;28;20033;-74
2021/08/06 00:55:06;;;;;;;25.33;15.50;;;;;;;25.49;48.05;98980.22;5073052;28;20082;-74
2021/08/06 00:57:32;;;;;;;34.90;13.63;;;;;;;25.51;47.86;98983.34;5073041;28;20025;-75
2021/08/06 00:59:57;;;;;;;18.35;11.35;;;;;;;25.48;47.75;98979.44;5072963;28;20020;-75
2021/08/06 01:02:29;;;;;;;29.20;15.18;;;;;;;25.49;47.69;98977.44;5072571;28;20028;-74
2021/08/06 01:05:02;;;;;;;26.70;13.10;;;;;;;25.50;47.98;98982.56;5072910;28;20429;-75
2021/08/06 01:08:01;;;;;;;19.33;13.68;;;;;;;25.51;47.57;98977.75;5072844;28;20032;-74
2021/08/06 01:10:39;;;;;;;19.63;12.23;;;;;;;25.47;47.81;98980.69;5072772;28;20025;-75
2021/08/06 01:13:09;;;;;;;26.25;14.45;;;;;;;25.11;48.96;98979.19;5072717;28;20072;-74
2021/08/06 01:15:35;;;;;;;;;;;;;;;25.02;49.00;98969.94;5073235;28;20028;-75
2021/08/06 01:18:03;;;;;;;22.15;13.60;;;;;;;24.99;49.24;98976.41;5072733;28;19912;-74
2021/08/06 01:20:34;;;;;;;26.58;14.35;;;;;;;24.90;49.58;98980.69;5072791;28;20086;-75
2021/08/06 01:23:32;;;;;;;21.88;12.68;;;;;;;25.00;49.53;98975.19;5072738;28;20517;-77
2021/08/06 01:26:11;;;;;;;19.48;13.82;;;;;;;25.01;49.49;98979.53;5072323;28;20071;-74
2021/08/06 01:28:40;;;;;;;31.65;13.60;;;;;;;25.03;49.27;98979.88;5072665;28;20024;-75
2021/08/06 01:31:07;;;;;;;27.40;12.20;;;;;;;25.05;49.12;98981.00;5072264;28;20055;-75
2021/08/06 01:33:33;;;;;;;23.38;13.00;;;;;;;25.06;49.34;98979.00;5071231;28;20052;-75
2021/08/06 01:35:59;;;;;;;20.92;12.50;;;;;;;25.07;49.24;98980.53;5071221;28;20024;-75
2021/08/06 01:38:25;;;;;;;24.52;11.50;;;;;;;25.08;49.14;98968.13;5072470;28;20025;-76
2021/08/06 01:41:05;;;;;;;20.77;12.70;;;;;;;25.06;49.29;98965.78;5072201;28;20494;-75
2021/08/06 01:43:34;;;;;;;19.02;14.35;;;;;;;25.03;49.54;98972.31;5072535;28;20025;-75
2021/08/06 01:46:09;;;;;;;25.20;12.70;;;;;;;25.03;49.34;98977.09;5072471;28;20070;-75
2021/08/06 01:48:38;;;;;;;30.42;15.07;;;;;;;25.02;49.61;98978.31;5072411;28;20094;-75
2021/08/06 01:51:11;;;;;;;23.58;13.65;;;;;;;24.96;49.55;98978.13;5072422;28;20475;-75
2021/08/06 01:53:43;;;;;;;23.60;14.68;;;;;;;24.83;50.10;98980.94;5072276;28;20444;-75
2021/08/06 01:56:11;;;;;;;24.00;13.95;;;;;;;24.82;50.15;98973.81;5072339;28;20029;-75
2021/08/06 01:58:38;;;;;;;26.35;16.50;;;;;;;24.73;50.33;98975.75;5072300;28;20025;-75
2021/08/06 02:01:04;;;;;;;27.10;15.30;;;;;;;24.79;50.15;98974.72;5072283;28;20112;-78
2021/08/06 02:03:31;;;;;;;22.27;13.85;;;;;;;24.82;50.27;98973.81;5072253;28;20111;-74
2021/08/06 02:05:56;;;;;;;25.60;16.25;;;;;;;24.83;50.08;98963.41;5072231;28;20071;-75
2021/08/06 02:08:23;;;;;;;21.95;12.82;;;;;;;24.79;50.29;98974.72;5072258;28;20048;-75
2021/08/06 02:10:49;;;;;;;19.60;12.20;;;;;;;24.79;50.45;98971.94;5070931;28;20035;-75
2021/08/06 02:13:14;;;;;;;20.17;12.70;;;;;;;24.78;50.70;98970.34;5070904;28;20123;-75
2021/08/06 02:15:42;;;;;;;17.15;11.20;;;;;;;24.72;50.93;98963.78;5074761;28;20132;-75
2021/08/06 02:18:11;;;;;;;18.33;11.85;;;;;;;24.65;50.89;98966.84;5074948;28;20032;-74
2021/08/06 02:20:38;;;;;;;19.45;10.80;;;;;;;24.62;51.16;98968.50;5075976;28;20029;-74
2021/08/06 02:23:06;;;;;;;14.88;9.88;;;;;;;24.65;51.22;98964.03;5075847;28;20467;-74
2021/08/06 02:25:33;;;;;;;17.33;10.48;;;;;;;24.67;50.64;98967.16;5075837;28;20025;-75
2021/08/06 02:28:01;;;;;;;13.63;9.52;;;;;;;24.65;50.82;98968.84;5075918;28;20035;-75
2021/08/06 02:30:29;;;;;;;16.77;10.75;;;;;;;24.58;51.32;98965.06;5075778;28;20028;-75
2021/08/06 02:32:56;;;;;;;18.33;10.85;;;;;;;24.54;51.66;98961.59;5075497;28;20049;-80
2021/08/06 02:35:22;;;;;;;22.27;15.68;;;;;;;24.83;50.45;98966.19;5075661;28;20158;-75
2021/08/06 02:37:49;;;;;;;17.30;11.60;;;;;;;24.96;50.00;98966.16;5075660;28;20056;-74
2021/08/06 02:40:15;;;;;;;23.65;13.52;;;;;;;24.97;50.14;98967.72;5075576;28;20032;-75
2021/08/06 02:42:41;;;;;;;20.60;14.48;;;;;;;25.10;49.70;98965.69;5075543;28;20470;-75
2021/08/06 02:45:09;;;;;;;28.02;15.80;;;;;;;24.90;50.43;98963.94;5075494;28;20036;-75
2021/08/06 02:47:35;;;;;;;23.35;16.13;;;;;;;24.98;50.73;98970.06;5075416;28;20033;-74
2021/08/06 02:50:00;;;;;;;29.88;16.35;;;;;;;25.10;49.74;98971.28;5075334;28;20036;-74
2021/08/06 02:52:26;;;;;;;20.83;18.13;;;;;;;25.10;50.08;98962.88;5075348;28;20081;-74
2021/08/06 02:54:52;;;;;;;25.33;17.23;;;;;;;25.03;50.03;98971.50;5075292;28;20099;-80
2021/08/06 02:57:18;;;;;;;23.33;17.92;;;;;;;24.91;50.48;98967.50;5075325;28;20441;-74
2021/08/06 02:59:43;;;;;;;22.80;20.40;;;;;;;24.98;50.23;98970.06;5075193;28;20433;-81
2021/08/06 03:02:09;;;;;;;22.05;18.67;;;;;;;25.07;50.20;98961.75;5075204;28;20033;-74
2021/08/06 03:04:35;;;;;;;21.60;15.95;;;;;;;25.04;50.33;98973.09;5075299;28;20035;-75
2021/08/06 03:07:00;;;;;;;21.70;15.98;;;;;;;24.95;50.42;98967.41;5075177;28;20032;-75
2021/08/06 03:09:26;;;;;;;20.92;16.90;;;;;;;24.68;51.20;98971.50;5065289;28;20109;-74
2021/08/06 03:11:52;;;;;;;20.67;16.80;;;;;;;24.67;51.34;98977.53;5054788;28;20033;-75
2021/08/06 03:14:17;;;;;;;21.77;16.77;;;;;;;24.72;51.47;98974.97;5054912;28;20029;-75
2021/08/06 03:16:43;;;;;;;22.00;17.55;;;;;;;24.66;51.73;98982.34;5054891;28;20025;-75
2021/08/06 03:19:09;;;;;;;22.30;18.67;;;;;;;24.72;51.21;98969.38;5054931;28;20033;-75
2021/08/06 03:21:34;;;;;;;19.17;14.40;;;;;;;24.77;51.27;98970.81;5054856;28;20028;-74
2021/08/06 03:24:00;;;;;;;20.38;11.85;;;;;;;24.78;51.25;98973.13;5054722;28;20037;-75
2021/08/06 03:26:26;;;;;;;17.67;16.15;;;;;;;24.87;51.02;98966.88;5054393;28;20056;-75
2021/08/06 03:28:52;;;;;;;14.38;9.48;;;;;;;24.81;50.98;98968.69;5053396;28;20028;-75
2021/08/06 03:31:18;;;;;;;14.35;9.90;;;;;;;24.91;50.82;98973.88;5054419;28;20053;-75
2021/08/06 03:33:43;;;;;;;11.85;10.75;;;;;;;24.90;50.99;98963.16;5054572;28;20025;-75
2021/08/06 03:36:10;;;;;;;10.32;9.30;;;;;;;24.91;50.98;98962.69;5053326;28;20029;-75
2021/08/06 03:38:36;;;;;;;10.65;8.07;;;;;;;24.78;51.25;98964.75;5054535;28;20047;-76
2021/08/06 03:41:02;;;;;;;9.95;7.43;;;;;;;24.79;51.25;98965.56;5054475;28;20029;-75
2021/08/06 03:43:27;;;;;;;9.80;6.95;;;;;;;24.80;51.47;98964.31;5054411;28;20033;-74
2021/08/06 03:45:53;;;;;;;10.85;7.20;;;;;;;24.68;51.97;98962.34;5054354;28;20032;-74
2021/08/06 03:48:19;;;;;;;12.80;7.75;;;;;;;24.92;51.23;98958.66;5054330;28;20071;-74
2021/08/06 03:50:44;;;;;;;12.13;10.88;;;;;;;25.01;50.97;98955.16;5054274;28;20399;-75
2021/08/06 03:53:10;;;;;;;13.07;11.18;;;;;;;24.95;51.10;98957.00;5054156;28;20033;-74
2021/08/06 03:55:35;;;;;;;9.80;8.88;;;;;;;24.94;51.14;98958.25;5054215;28;20399;-75
2021/08/06 03:58:03;;;;;;;11.40;10.32;;;;;;;24.97;50.94;98953.75;5054296;28;20040;-74
2021/08/06 04:00:32;;;;;;;12.32;9.88;;;;;;;25.04;50.84;98954.31;5054101;28;20387;-75
2021/08/06 04:02:58;;;;;;;11.20;8.15;;;;;;;24.96;50.76;98955.75;5054073;28;20064;-74
2021/08/06 04:05:24;;;;;;;11.43;10.27;;;;;;;24.98;50.90;98961.66;5053997;28;20111;-75
2021/08/06 04:07:49;;;;;;;8.05;6.88;;;;;;;25.02;50.90;98962.34;5053929;28;20028;-74
2021/08/06 04:10:18;;;;;;;8.27;6.53;;;;;;;25.08;50.56;98959.75;5053860;28;20032;-75
2021/08/06 04:12:48;;;;;;;10.02;7.13;;;;;;;25.19;50.04;98962.94;5053812;28;20036;-75
2021/08/06 04:15:15;;;;;;;12.45;9.23;;;;;;;25.23;50.10;98957.22;5053785;28;20051;-74
2021/08/06 04:17:41;;;;;;;14.43;10.40;;;;;;;25.15;50.07;98951.88;5053785;28;20513;-74
2021/08/06 04:20:07;;;;;;;9.27;8.48;;;;;;;25.18;50.18;98955.81;5053687;28;20071;-74
2021/08/06 04:22:33;;;;;;;10.27;9.45;;;;;;;25.11;50.41;98958.84;5052816;28;20029;-75
2021/08/06 04:24:59;;;;;;;11.20;9.90;;;;;;;25.16;50.29;98961.84;5053350;28;20104;-74
2021/08/06 04:27:24;;;;;;;15.85;12.13;;;;;;;25.20;49.85;98958.13;5053554;28;20025;-75
2021/08/06 04:29:50;;;;;;;11.45;10.48;;;;;;;25.14;50.03;98952.34;5053566;28;20040;-75
2021/08/06 04:32:16;;;;;;;13.60;11.93;;;;;;;25.15;49.79;98959.50;5053201;28;20048;-75
2021/08/06 04:34:41;;;;;;;10.38;8.75;;;;;;;25.22;49.91;98959.22;5053356;28;20065;-75
2021/08/06 04:37:07;;;;;;;12.73;10.68;;;;;;;25.24;49.96;98969.94;5052652;28;20054;-75
2021/08/06 04:39:32;;;;;;;10.55;8.30;;;;;;;25.40;49.43;98958.59;5053412;28;20023;-74
2021/08/06 04:41:58;;;;;;;11.25;7.18;;;;;;;25.35;49.52;98959.94;5053313;28;20071;-75
2021/08/06 04:44:24;;;;;;;11.38;6.93;;;;;;;25.23;49.54;98962.81;5053368;28;20025;-75
2021/08/06 04:46:50;;;;;;;15.32;7.47;;;;;;;25.32;49.65;98965.69;5051965;28;20043;-75
2021/08/06 04:49:15;;;;;;;9.73;6.10;;;;;;;25.15;49.94;98965.06;5053289;28;20029;-80
2021/08/06 04:51:41;;;;;;;11.20;9.20;;;;;;;25.23;50.03;98968.41;5053028;28;20036;-75
2021/08/06 04:54:07;;;;;;;8.13;5.95;;;;;;;25.12;49.97;98966.00;5053056;28;20021;-75
2021/08/06 04:56:33;;;;;;;13.90;10.75;;;;;;;25.09;50.21;98967.69;5053114;28;20533;-76
2021/08/06 04:58:59;;;;;;;7.72;6.20;;;;;;;24.89;50.63;98976.34;5053020;28;20172;-76
2021/08/06 05:01:25;;;;;;;10.70;9.68;;;;;;;24.75;51.23;98968.47;5053060;28;20100;-76
2021/08/06 05:03:51;;;;;;;5.30;4.72;;;;;;;24.60;51.50;98973.75;5052908;28;20033;-77
2021/08/06 05:06:16;;;;;;;10.55;4.38;;;;;;;24.75;50.67;98965.66;5052894;28;20495;-75
2021/08/06 05:08:46;;;;;;;6.03;3.60;;;;;;;24.90;50.29;98963.94;5052869;28;20024;-75
2021/08/06 05:11:11;;;;;;;14.93;4.43;;;;;;;24.82;50.39;98965.44;5052892;28;20021;-75
2021/08/06 05:13:37;;;;;;;5.13;3.33;;;;;;;24.89;50.00;98967.97;5052758;28;20036;-76
2021/08/06 05:16:03;;;;;;;15.27;5.03;;;;;;;24.83;50.45;98972.56;5052805;28;20043;-81
2021/08/06 05:18:29;;;;;;;8.60;4.65;;;;;;;24.92;50.16;98969.84;5052852;28;20139;-77
2021/08/06 05:20:55;;;;;;;4.05;3.10;;;;;;;24.87;50.23;98972.47;5052652;28;20104;-76
2021/08/06 05:23:20;;;;;;;10.10;3.65;;;;;;;24.76;50.60;98974.81;5052713;28;20039;-76
2021/08/06 05:25:46;;;;;;;12.68;3.55;;;;;;;24.72;50.90;98980.56;5052730;28;20496;-76
2021/08/06 05:28:12;;;;;;;5.60;3.22;;;;;;;24.89;50.44;98969.97;5052648;28;20380;-76
2021/08/06 05:30:38;;;;;;;5.82;2.83;;;;;;;24.81;50.82;98982.63;5052727;28;20104;-76
2021/08/06 05:33:04;;;;;;;9.40;3.95;;;;;;;24.73;51.11;98978.53;5052458;28;20053;-76
2021/08/06 05:35:29;;;;;;;6.90;5.80;;;;;;;24.64;51.42;98990.41;5051388;28;20618;-76
2021/08/06 05:37:56;;;;;;;7.18;6.68;;;;;;;24.55;51.34;98979.13;5052309;28;20104;-82
2021/08/06 05:40:22;;;;;;;6.40;5.18;;;;;;;24.78;50.88;98984.31;5052558;28;20372;-75
2021/08/06 05:42:47;;;;;;;6.15;4.30;;;;;;;24.83;50.43;98977.38;5052659;28;20114;-81
2021/08/06 05:45:13;;;;;;;11.50;7.50;;;;;;;24.73;51.11;98984.13;5052536;28;20557;-76
2021/08/06 05:47:53;;;;;;;7.18;4.18;;;;;;;24.89;50.50;98973.56;5052691;28;20418;-76
2021/08/06 05:50:22;;;;;;;7.30;5.97;;;;;;;24.86;50.59;98974.47;5056787;28;20048;-75
2021/08/06 05:52:47;;;;;;;10.05;9.45;;;;;;;24.80;50.60;98970.69;5056498;28;20069;-76
2021/08/06 05:55:14;;;;;;;9.70;8.77;;;;;;;24.88;50.39;98965.63;5056519;28;20149;-76
2021/08/06 05:57:40;;;;;;;11.05;10.20;;;;;;;24.77;51.28;98968.00;5056537;28;20032;-76
2021/08/06 06:00:08;;;;;;;11.55;10.75;;;;;;;24.66;51.45;98973.19;5055141;28;20025;-76
2021/08/06 06:02:34;;;;;;;14.23;9.98;;;;;;;24.59;51.58;98968.63;5056242;28;20114;-76
2021/08/06 06:04:59;;;;;;;8.30;7.63;;;;;;;24.80;51.20;98976.28;5056229;28;20494;-82
2021/08/06 06:07:25;;;;;;;9.48;8.10;;;;;;;24.82;50.78;98979.38;5056103;28;20029;-75
2021/08/06 06:09:51;;;;;;;7.10;6.22;;;;;;;24.47;52.05;98977.81;5056279;28;20020;-74
2021/08/06 06:12:16;;;;;;;10.00;3.22;;;;;;;24.52;51.71;98974.44;5054787;28;20171;-75
2021/08/06 06:14:42;;;;;;;8.23;3.83;;;;;;;24.77;50.83;98977.16;5056125;28;20032;-75
2021/08/06 06:17:11;;;;;;;3.83;2.20;;;;;;;24.60;51.62;98968.16;5055948;28;20036;-77
2021/08/06 06:19:37;;;;;;;6.00;3.97;;;;;;;25.03;50.30;98971.50;5056006;28;20025;-75
2021/08/06 06:22:04;;;;;;;4.13;2.20;;;;;;;24.85;50.50;98974.91;5055941;28;20029;-75
2021/08/06 06:24:29;;;;;;;4.15;3.53;;;;;;;24.76;51.09;98978.41;5054620;28;20067;-75
2021/08/06 06:26:55;;;;;;;5.80;3.22;;;;;;;24.90;50.44;98969.53;5055871;28;20511;-75
2021/08/06 06:29:21;;;;;;;7.05;6.55;;;;;;;24.65;51.10;98980.00;5055827;28;20024;-78
2021/08/06 06:31:46;;;;;;;4.30;4.00;;;;;;;24.37;52.28;98987.31;5054222;28;20048;-75
2021/08/06 06:34:12;;;;;;;3.38;2.88;;;;;;;24.24;52.58;98979.72;5054487;28;20120;-75
2021/08/06 06:36:37;;;;;;;9.07;4.00;;;;;;;24.34;52.29;98975.84;5055726;28;20124;-75
2021/08/06 06:39:03;;;;;;;5.35;3.97;;;;;;;24.42;51.80;98983.97;5054413;28;20033;-75
2021/08/06 06:41:29;;;;;;;3.85;2.63;;;;;;;24.34;52.06;98981.41;5055672;28;20017;-75
2021/08/06 06:43:54;;;;;;;4.20;2.45;;;;;;;24.26;52.00;98980.06;5055564;28;20059;-80
2021/08/06 06:46:20;;;;;;;4.82;4.45;;;;;;;24.48;51.72;98985.72;5054279;28;20124;-75
2021/08/06 06:48:46;;;;;;;6.25;3.13;;;;;;;24.73;51.02;98987.69;5055490;28;20444;-75
2021/08/06 06:51:11;;;;;;;9.43;5.10;;;;;;;24.82;51.03;98982.19;5055456;28;20506;-75
2021/08/06 06:53:37;;;;;;;3.83;2.88;;;;;;;24.72;51.50;98990.94;5055371;28;20067;-75
2021/08/06 06:56:03;;;;;;;3.97;3.08;;;;;;;24.84;51.01;98981.72;5055371;28;20105;-76
2021/08/06 06:58:29;;;;;;;6.15;5.00;;;;;;;24.78;51.60;98983.53;5053985;28;20050;-75
2021/08/06 07:00:56;;;;;;;4.45;4.05;;;;;;;24.97;51.09;98988.06;5053378;28;20028;-76
2021/08/06 07:03:22;;;;;;;7.97;7.38;;;;;;;24.86;51.19;98985.66;5055374;28;20021;-79
2021/08/06 07:05:47;;;;;;;12.48;10.88;;;;;;;24.92;50.94;98994.22;5055147;28;20032;-73
2021/08/06 07:08:13;;;;;;;7.82;7.13;;;;;;;24.91;51.44;98987.84;5055106;28;20025;-80
2021/08/06 07:10:39;;;;;;;4.72;4.32;;;;;;;24.66;52.02;98996.31;5055005;28;20021;-73
2021/08/06 07:13:04;;;;;;;12.18;11.13;;;;;;;24.66;52.11;98998.31;5054880;28;20056;-73
2021/08/06 07:15:30;;;;;;;7.03;6.35;;;;;;;24.98;51.14;98994.41;5053647;28;20497;-73
2021/08/06 07:17:56;;;;;;;5.32;2.97;;;;;;;24.87;51.58;98992.78;5054869;28;20032;-73
2021/08/06 07:20:21;;;;;;;3.40;3.20;;;;;;;24.97;51.47;98995.66;5054757;28;20021;-80
2021/08/06 07:22:47;;;;;;;2.95;2.17;;;;;;;24.80;51.94;98995.81;5054882;28;20036;-78
2021/08/06 07:25:15;;;;;;;5.93;2.50;;;;;;;24.78;52.09;98994.69;5070223;28;20119;-73
2021/08/06 07:27:42;;;;;;;5.70;3.10;;;;;;;24.57;52.20;99001.81;5054688;28;20040;-72
2021/08/06 07:30:09;;;;;;;2.83;1.50;;;;;;;24.38;52.65;99000.03;5054720;28;20029;-73
2021/08/06 07:32:35;;;;;;;1.88;1.08;;;;;;;24.43;52.39;98991.91;5054360;28;20142;-72
2021/08/06 07:35:01;;;;;;;1.90;1.63;;;;;;;24.35;52.72;99005.31;5053358;28;20031;-72
2021/08/06 07:37:27;;;;;;;3.90;1.58;;;;;;;24.27;53.12;99003.16;5054543;28;20033;-73
2021/08/06 07:39:54;;;;;;;2.85;1.83;;;;;;;24.68;51.89;99007.81;5054483;28;20032;-72
2021/08/06 07:42:20;;;;;;;1.95;1.73;;;;;;;24.52;52.36;99010.75;5054428;28;20117;-72
2021/08/06 07:44:46;;;;;;;3.92;1.67;;;;;;;24.42;52.08;99009.88;5054389;28;20154;-73
2021/08/06 07:47:13;;;;;;;4.47;1.80;;;;;;;24.16;52.59;99011.84;5054358;28;20029;-73
2021/08/06 07:49:41;;;;;;;3.72;1.85;;;;;;;24.55;51.78;99016.19;5054293;28;20112;-72
2021/08/06 07:52:14;;;;;;;4.25;1.73;;;;;;;24.58;51.38;99023.69;5054170;28;20025;-71
2021/08/06 07:54:40;;;;;;;4.93;2.30;;;;;;;24.34;52.03;99028.09;5052936;28;20025;-72
2021/08/06 07:57:06;;;;;;;3.83;2.85;;;;;;;24.62;51.48;99021.53;5054115;28;20025;-71
2021/08/06 07:59:32;;;;;;;5.63;2.50;;;;;;;24.66;51.35;99032.63;5054146;28;20510;-71
2021/08/06 08:01:58;;;;;;;6.05;2.42;;;;;;;24.48;51.82;99024.81;5054064;28;20029;-71
2021/08/06 08:04:24;;;;;;;5.65;3.22;;;;;;;24.26;52.29;99023.94;5054401;28;20025;-71
2021/08/06 08:06:50;;;;;;;6.35;2.60;;;;;;;24.45;51.68;99024.94;5053034;28;20035;-82
2021/08/06 08:09:15;;;;;;;4.93;2.05;;;;;;;24.29;51.62;99026.59;5054198;28;20017;-72
2021/08/06 08:11:41;;;;;;;4.70;1.92;;;;;;;24.43;51.04;99039.34;5053138;28;20067;-72
2021/08/06 08:14:06;;;;;;;3.25;1.70;;;;;;;24.36;51.56;99034.00;5054195;28;20021;-84
2021/08/06 08:16:32;;;;;;;4.13;1.85;;;;;;;24.35;51.67;99041.59;5053066;28;20139;-71
2021/08/06 08:18:58;;;;;;;5.18;1.50;;;;;;;24.56;51.20;99034.53;5054053;28;20017;-71
2021/08/06 08:21:24;;;;;;;2.45;1.42;;;;;;;24.31;51.79;99035.28;5054015;28;20498;-80
2021/08/06 08:23:51;;;;;;;10.50;2.20;;;;;;;24.65;50.92;99042.22;5054106;28;20399;-71
2021/08/06 08:26:17;;;;;;;5.57;1.75;;;;;;;24.61;50.96;99041.56;5053940;28;20501;-71
2021/08/06 08:28:43;;;;;;;3.70;1.60;;;;;;;24.40;51.37;99047.81;5054018;28;20021;-72
2021/08/06 08:31:08;;;;;;;7.30;2.10;;;;;;;24.60;51.10;99049.16;5053606;28;20055;-71
2021/08/06 08:33:34;;;;;;;4.70;1.50;;;;;;;24.56;51.08;99048.50;5053642;28;20021;-83
2021/08/06 08:36:00;;;;;;;3.72;1.67;;;;;;;24.69;50.50;99054.03;5053527;28;20383;-76
2021/08/06 08:38:26;;;;;;;3.30;1.98;;;;;;;24.64;51.01;99051.84;5053821;28;20028;-70
2021/08/06 08:40:54;;;;;;;3.90;1.83;;;;;;;25.05;49.64;99053.66;5053732;28;20387;-82
2021/08/06 08:43:20;;;;;;;4.88;1.63;;;;;;;24.46;51.06;99046.03;5054455;28;20025;-81
2021/08/06 08:45:47;;;;;;;6.45;1.80;;;;;;;24.79;50.54;99047.34;5053061;28;20031;-81
2021/08/06 08:48:13;;;;;;;6.07;2.10;;;;;;;24.98;50.57;99053.09;5053929;28;20021;-75
2021/08/06 08:50:41;;;;;;;5.13;2.05;;;;;;;25.41;49.22;99055.97;5053551;28;20021;-81
2021/08/06 08:53:08;;;;;;;4.95;2.63;;;;;;;25.37;49.32;99057.34;5053888;28;20164;-70
2021/08/06 08:55:37;;;;;;;3.78;1.83;;;;;;;25.21;49.59;99044.31;5052996;28;20071;-77
2021/08/06 08:58:03;;;;;;;6.30;3.13;;;;;;;25.07;49.70;99056.00;5052938;28;20047;-80
2021/08/06 09:00:29;;;;;;;7.80;2.40;;;;;;;25.31;48.68;99054.31;5053610;28;20269;-82
2021/08/06 09:02:55;;;;;;;8.93;3.00;;;;;;;25.30;49.05;99049.97;5054397;28;20021;-83
2021/08/06 09:05:24;;;;;;;9.13;2.20;;;;;;;25.13;49.09;99048.59;5053209;28;20395;-82
2021/08/06 09:07:51;;;;;;;11.07;2.25;;;;;;;25.51;48.23;99047.66;5054440;28;20033;-82
2021/08/06 09:10:25;;;;;;;7.88;2.60;;;;;;;25.30;48.69;99049.97;5054231;28;20036;-77
2021/08/06 09:13:03;;;;;;;16.95;3.40;;;;;;;24.97;49.40;99051.53;5054283;28;20033;-81
2021/08/06 09:15:56;;;;;;;11.20;3.25;;;;;;;25.00;48.95;99056.97;5053883;28;20025;-81
2021/08/06 09:18:27;;;;;;;12.82;3.05;;;;;;;25.24;48.06;99054.59;5053455;28;20479;-80
2021/08/06 09:20:55;;;;;;;5.30;2.25;;;;;;;25.15;48.63;99057.31;5053141;28;20074;-70
2021/08/06 09:23:56;;;;;;;6.18;2.25;;;;;;;24.91;48.94;99076.47;5052771;28;20021;-80
2021/08/06 09:26:27;;;;;;;3.70;2.25;;;;;;;24.92;48.09;99053.66;5053254;28;20020;-80
2021/08/06 09:29:05;;;;;;;5.00;2.53;;;;;;;25.31;47.79;99057.13;5052917;28;20036;-79
2021/08/06 09:31:33;;;;;;;8.95;2.83;;;;;;;25.61;47.33;99052.84;5052615;28;20053;-80
2021/08/06 09:34:36;;;;;;;5.20;2.10;;;;;;;25.42;47.22;99062.34;5052747;28;20053;-80
2021/08/06 09:37:11;;;;;;;7.30;2.40;;;;;;;25.62;47.53;99059.25;5052889;28;20033;-70
2021/08/06 09:39:42;;;;;;;9.73;2.25;;;;;;;25.43;48.00;99049.94;5053143;28;20037;-79
2021/08/06 09:42:17;;;;;;;3.92;1.85;;;;;;;25.99;46.90;99049.06;5052797;28;20025;-80
2021/08/06 09:44:43;;;;;;;4.15;1.95;;;;;;;26.28;46.32;99054.31;5052965;28;20086;-82
2021/08/06 09:47:20;;;;;;;6.13;2.78;;;;;;;26.58;45.83;99047.13;5053218;28;20467;-71
2021/08/06 09:49:49;;;;;;;7.00;2.13;;;;;;;26.48;46.10;99053.97;5053466;28;20064;-82
2021/08/06 09:52:14;;;;;;;10.13;2.13;;;;;;;26.63;46.22;99054.94;5051975;28;20025;-81
2021/08/06 09:54:47;;;;;;;9.20;2.97;;;;;;;26.75;45.65;99056.03;5053326;28;20483;-81
2021/08/06 09:57:13;;;;;;;18.38;3.55;;;;;;;26.97;45.61;99048.28;5053172;28;20047;-81
2021/08/06 09:59:39;;;;;;;8.05;2.33;;;;;;;26.99;45.07;99045.81;5053066;28;20044;-81
2021/08/06 10:02:19;;;;;;;6.53;2.05;;;;;;;26.62;45.77;99050.59;5053367;28;20471;-82
2021/08/06 10:05:24;;;;;;;8.48;2.22;;;;;;;26.85;44.41;99054.06;5053282;28;20025;-82
2021/08/06 10:07:53;;;;;;;5.63;2.25;;;;;;;26.69;44.30;99052.31;5047606;28;20124;-82
2021/08/06 10:10:36;;;;;;;6.80;1.45;;;;;;;26.41;44.32;99054.25;5052909;28;20387;-81
2021/08/06 10:13:04;;;;;;;4.05;1.38;;;;;;;26.02;44.84;99061.38;5051754;28;20033;-80
2021/08/06 10:15:30;;;;;;;4.57;2.45;;;;;;;26.31;44.77;99061.81;5052822;28;20104;-78
2021/08/06 10:17:57;;;;;;;15.35;3.80;;;;;;;26.55;44.31;99051.66;5053099;28;20036;-81
2021/08/06 10:20:25;;;;;;;7.40;2.05;;;;;;;26.82;43.71;99055.75;5052908;28;20032;-81
2021/08/06 10:22:52;;;;;;;4.05;1.77;;;;;;;27.01;43.54;99051.72;5051736;28;20447;-81
2021/08/06 10:25:20;;;;;;;4.80;2.22;;;;;;;26.86;44.13;99052.81;5052976;28;20025;-81
2021/08/06 10:27:48;;;;;;;8.30;3.00;;;;;;;27.02;43.58;99047.69;5052853;28;20031;-82
2021/08/06 10:30:31;;;;;;;5.43;2.30;;;;;;;26.39;44.55;99051.13;5052753;28;20052;-80
2021/08/06 10:33:28;;;;;;;4.85;1.60;;;;;;;26.18;44.29;99042.31;5052286;28;20102;-82
2021/08/06 10:36:01;;;;;;;7.05;2.10;;;;;;;26.29;44.23;99053.84;5054615;28;20044;-81
2021/08/06 10:38:44;;;;;;;7.60;2.53;;;;;;;26.66;43.65;99056.03;5056451;28;20074;-80
2021/08/06 10:41:14;;;;;;;5.22;1.73;;;;;;;26.86;43.20;99062.00;5056389;28;20063;-81
2021/08/06 10:43:43;;;;;;;4.65;1.58;;;;;;;26.30;44.25;99057.47;5056237;28;20033;-80
2021/08/06 10:46:10;;;;;;;4.57;1.50;;;;;;;26.64;43.21;99055.72;5056379;28;20029;-82
2021/08/06 10:48:47;;;;;;;4.13;1.75;;;;;;;26.66;43.10;99068.00;5056279;28;20541;-82
2021/08/06 10:51:16;;;;;;;8.73;2.08;;;;;;;26.71;43.40;99055.41;5055304;28;20049;-81
2021/08/06 10:53:48;;;;;;;8.15;1.83;;;;;;;26.79;43.47;99051.84;5056205;28;20550;-80
2021/08/06 10:56:26;;;;;;;6.32;2.25;;;;;;;26.86;43.45;99045.19;5056005;28;20032;-82
2021/08/06 10:59:11;;;;;;;7.88;2.53;;;;;;;27.24;43.11;99046.78;5056146;28;20479;-81
2021/08/06 11:01:41;;;;;;;8.85;2.90;;;;;;;27.64;42.52;99044.56;5055920;28;20025;-82
2021/08/06 11:04:13;;;;;;;12.05;2.25;;;;;;;27.78;42.39;99039.59;5054764;28;20040;-82
2021/08/06 11:06:48;;;;;;;2.50;1.10;;;;;;;27.82;41.45;99043.78;5055932;28;20025;-81
2021/08/06 11:09:26;;;;;;;9.07;2.38;;;;;;;27.61;41.39;99056.75;5056369;28;20024;-80
2021/08/06 11:12:06;;;;;;;4.15;1.52;;;;;;;27.65;40.98;99053.75;5055730;28;20111;-82
2021/08/06 11:14:34;;;;;;;5.90;2.53;;;;;;;27.66;40.92;99049.72;5055747;28;20044;-80
2021/08/06 11:17:22;;;;;;;7.80;2.70;;;;;;;27.29;42.18;99046.19;5055187;28;20021;-79
2021/08/06 11:20:05;;;;;;;7.50;1.85;;;;;;;27.91;41.45;99042.97;5055119;28;20128;-80
2021/08/06 11:22:33;;;;;;;6.35;2.80;;;;;;;28.00;40.67;99030.94;5055069;28;20510;-78
2021/08/06 11:25:07;;;;;;;4.35;2.17;;;;;;;28.51;40.49;99028.09;5055032;28;20017;-79
2021/08/06 11:27:37;;;;;;;5.97;2.70;;;;;;;28.77;40.04;99050.88;5053674;28;20017;-79
2021/08/06 11:30:02;;;;;;;;;;;;;;;28.31;40.60;99044.72;5053997;28;20050;-79
2021/08/06 11:32:31;;;;;;;3.88;1.80;;;;;;;27.65;41.85;99056.56;5069813;28;19916;-79